sensor_id;sensor_type;location;lat;lon;timestamp;P1;durP1;ratioP1;P2;durP2;ratioP2
59145;SDS011;44928;53.074;6.646;2023-02-28T00:01:16;11.18;;;4.00;;
59145;SDS011;44928;53.074;6.646;2023-02-28T00:03:42;12.48;;;3.92;;
59145;SDS011;44928;53.074;6.646;2023-02-28T00:06:08;12.55;;;3.97;;
59145;SDS011;44928;53.074;6.646;2023-02-28T00:08:37;8.88;;;3.78;;
59145;SDS011;44928;53.074;6.646;2023-02-28T00:11:08;10.65;;;3.63;;
59145;SDS011;44928;53.074;6.646;2023-02-28T00:13:36;10.57;;;3.60;;
59145;SDS011;44928;53.074;6.646;2023-02-28T00:16:04;10.60;;;3.13;;
59145;SDS011;44928;53.074;6.646;2023-02-28T00:18:33;11.25;;;3.55;;
59145;SDS011;44928;53.074;6.646;2023-02-28T00:20:59;10.82;;;3.38;;
59145;SDS011;44928;53.074;6.646;2023-02-28T00:23:25;8.27;;;3.08;;
59145;SDS011;44928;53.074;6.646;2023-02-28T00:25:51;11.13;;;3.67;;
59145;SDS011;44928;53.074;6.646;2023-02-28T00:28:17;9.50;;;3.38;;
59145;SDS011;44928;53.074;6.646;2023-02-28T00:30:43;10.30;;;3.45;;
59145;SDS011;44928;53.074;6.646;2023-02-28T00:33:09;9.07;;;3.22;;
59145;SDS011;44928;53.074;6.646;2023-02-28T00:35:35;10.77;;;3.60;;
59145;SDS011;44928;53.074;6.646;2023-02-28T00:38:01;9.48;;;3.53;;
59145;SDS011;44928;53.074;6.646;2023-02-28T00:40:27;9.82;;;3.47;;
59145;SDS011;44928;53.074;6.646;2023-02-28T00:42:54;10.40;;;3.28;;
59145;SDS011;44928;53.074;6.646;2023-02-28T00:45:19;7.03;;;2.97;;
59145;SDS011;44928;53.074;6.646;2023-02-28T00:47:45;8.98;;;3.80;;
59145;SDS011;44928;53.074;6.646;2023-02-28T00:50:15;10.10;;;2.97;;
59145;SDS011;44928;53.074;6.646;2023-02-28T00:52:45;12.57;;;3.45;;
59145;SDS011;44928;53.074;6.646;2023-02-28T00:55:11;8.85;;;3.30;;
59145;SDS011;44928;53.074;6.646;2023-02-28T00:57:37;8.65;;;3.30;;
59145;SDS011;44928;53.074;6.646;2023-02-28T01:00:03;10.93;;;3.25;;
59145;SDS011;44928;53.074;6.646;2023-02-28T01:02:30;9.52;;;3.55;;
59145;SDS011;44928;53.074;6.646;2023-02-28T01:04:55;8.93;;;3.33;;
59145;SDS011;44928;53.074;6.646;2023-02-28T01:07:22;12.07;;;3.72;;
59145;SDS011;44928;53.074;6.646;2023-02-28T01:09:48;8.20;;;3.15;;
59145;SDS011;44928;53.074;6.646;2023-02-28T01:12:15;9.07;;;3.92;;
59145;SDS011;44928;53.074;6.646;2023-02-28T01:14:41;9.52;;;3.22;;
59145;SDS011;44928;53.074;6.646;2023-02-28T01:17:07;10.35;;;3.05;;
59145;SDS011;44928;53.074;6.646;2023-02-28T01:19:33;7.05;;;2.85;;
59145;SDS011;44928;53.074;6.646;2023-02-28T01:22:02;9.20;;;3.50;;
59145;SDS011;44928;53.074;6.646;2023-02-28T01:24:29;9.75;;;3.78;;
59145;SDS011;44928;53.074;6.646;2023-02-28T01:26:55;10.38;;;3.78;;
59145;SDS011;44928;53.074;6.646;2023-02-28T01:29:21;8.90;;;3.90;;
59145;SDS011;44928;53.074;6.646;2023-02-28T01:31:46;8.68;;;3.70;;
59145;SDS011;44928;53.074;6.646;2023-02-28T01:34:12;7.70;;;3.30;;
59145;SDS011;44928;53.074;6.646;2023-02-28T01:36:38;13.13;;;3.88;;
59145;SDS011;44928;53.074;6.646;2023-02-28T01:39:04;10.45;;;3.60;;
59145;SDS011;44928;53.074;6.646;2023-02-28T01:41:31;7.85;;;3.13;;
59145;SDS011;44928;53.074;6.646;2023-02-28T01:44:05;10.18;;;3.40;;
59145;SDS011;44928;53.074;6.646;2023-02-28T01:46:34;9.02;;;3.78;;
59145;SDS011;44928;53.074;6.646;2023-02-28T01:49:08;8.63;;;3.30;;
59145;SDS011;44928;53.074;6.646;2023-02-28T01:51:51;9.43;;;3.90;;
59145;SDS011;44928;53.074;6.646;2023-02-28T01:54:21;10.82;;;3.80;;
59145;SDS011;44928;53.074;6.646;2023-02-28T01:56:54;10.30;;;4.43;;
59145;SDS011;44928;53.074;6.646;2023-02-28T01:59:36;8.57;;;3.42;;
59145;SDS011;44928;53.074;6.646;2023-02-28T02:02:04;12.20;;;4.00;;
59145;SDS011;44928;53.074;6.646;2023-02-28T02:07:19;8.05;;;3.20;;
59145;SDS011;44928;53.074;6.646;2023-02-28T02:09:46;12.00;;;4.20;;
59145;SDS011;44928;53.074;6.646;2023-02-28T02:12:25;9.13;;;3.92;;
59145;SDS011;44928;53.074;6.646;2023-02-28T02:15:07;10.85;;;4.53;;
59145;SDS011;44928;53.074;6.646;2023-02-28T02:17:44;13.27;;;4.05;;
59145;SDS011;44928;53.074;6.646;2023-02-28T02:34:23;13.30;;;5.53;;
59145;SDS011;44928;53.074;6.646;2023-02-28T02:42:45;10.20;;;4.47;;
59145;SDS011;44928;53.074;6.646;2023-02-28T02:45:34;11.00;;;4.15;;
59145;SDS011;44928;53.074;6.646;2023-02-28T02:48:10;12.73;;;4.43;;
59145;SDS011;44928;53.074;6.646;2023-02-28T02:50:45;11.60;;;4.55;;
59145;SDS011;44928;53.074;6.646;2023-02-28T02:53:14;11.23;;;4.85;;
59145;SDS011;44928;53.074;6.646;2023-02-28T02:55:44;10.63;;;4.55;;
59145;SDS011;44928;53.074;6.646;2023-02-28T02:58:18;13.27;;;4.60;;
59145;SDS011;44928;53.074;6.646;2023-02-28T03:00:53;10.90;;;5.10;;
59145;SDS011;44928;53.074;6.646;2023-02-28T03:03:23;11.55;;;5.05;;
59145;SDS011;44928;53.074;6.646;2023-02-28T03:05:59;10.32;;;4.78;;
59145;SDS011;44928;53.074;6.646;2023-02-28T03:08:26;10.48;;;4.50;;
59145;SDS011;44928;53.074;6.646;2023-02-28T03:10:57;10.68;;;5.20;;
59145;SDS011;44928;53.074;6.646;2023-02-28T03:16:33;13.05;;;5.65;;
59145;SDS011;44928;53.074;6.646;2023-02-28T03:22:14;11.20;;;5.03;;
59145;SDS011;44928;53.074;6.646;2023-02-28T03:27:40;11.10;;;4.97;;
59145;SDS011;44928;53.074;6.646;2023-02-28T03:32:38;11.82;;;4.78;;
59145;SDS011;44928;53.074;6.646;2023-02-28T03:35:14;11.18;;;4.70;;
59145;SDS011;44928;53.074;6.646;2023-02-28T03:37:47;10.98;;;4.32;;
59145;SDS011;44928;53.074;6.646;2023-02-28T03:40:21;11.30;;;4.60;;
59145;SDS011;44928;53.074;6.646;2023-02-28T03:42:51;12.07;;;4.93;;
59145;SDS011;44928;53.074;6.646;2023-02-28T03:45:26;9.73;;;4.22;;
59145;SDS011;44928;53.074;6.646;2023-02-28T03:48:06;10.23;;;4.28;;
59145;SDS011;44928;53.074;6.646;2023-02-28T03:50:47;10.30;;;4.75;;
59145;SDS011;44928;53.074;6.646;2023-02-28T03:53:34;10.70;;;4.47;;
59145;SDS011;44928;53.074;6.646;2023-02-28T03:58:49;12.02;;;4.35;;
59145;SDS011;44928;53.074;6.646;2023-02-28T04:01:21;12.07;;;4.55;;
59145;SDS011;44928;53.074;6.646;2023-02-28T04:04:00;10.38;;;4.53;;
59145;SDS011;44928;53.074;6.646;2023-02-28T04:06:27;11.20;;;4.43;;
59145;SDS011;44928;53.074;6.646;2023-02-28T04:08:55;9.60;;;4.07;;
59145;SDS011;44928;53.074;6.646;2023-02-28T04:11:40;10.52;;;4.50;;
59145;SDS011;44928;53.074;6.646;2023-02-28T04:14:08;9.02;;;4.55;;
59145;SDS011;44928;53.074;6.646;2023-02-28T04:16:35;11.10;;;4.72;;
59145;SDS011;44928;53.074;6.646;2023-02-28T04:19:03;8.65;;;4.28;;
59145;SDS011;44928;53.074;6.646;2023-02-28T04:24:00;14.88;;;5.20;;
59145;SDS011;44928;53.074;6.646;2023-02-28T04:26:29;12.00;;;4.95;;
59145;SDS011;44928;53.074;6.646;2023-02-28T04:28:56;9.38;;;4.65;;
59145;SDS011;44928;53.074;6.646;2023-02-28T04:31:22;10.77;;;4.47;;
59145;SDS011;44928;53.074;6.646;2023-02-28T04:33:48;11.45;;;4.38;;
59145;SDS011;44928;53.074;6.646;2023-02-28T04:36:14;9.82;;;4.43;;
59145;SDS011;44928;53.074;6.646;2023-02-28T04:38:42;10.23;;;4.68;;
59145;SDS011;44928;53.074;6.646;2023-02-28T04:41:09;12.05;;;5.03;;
59145;SDS011;44928;53.074;6.646;2023-02-28T04:43:35;11.82;;;5.25;;
59145;SDS011;44928;53.074;6.646;2023-02-28T04:46:01;11.88;;;4.97;;
59145;SDS011;44928;53.074;6.646;2023-02-28T04:48:28;10.50;;;4.95;;
59145;SDS011;44928;53.074;6.646;2023-02-28T04:51:00;11.60;;;5.85;;
59145;SDS011;44928;53.074;6.646;2023-02-28T04:53:37;10.93;;;5.60;;
59145;SDS011;44928;53.074;6.646;2023-02-28T04:56:04;10.75;;;5.28;;
59145;SDS011;44928;53.074;6.646;2023-02-28T04:58:31;13.25;;;5.55;;
59145;SDS011;44928;53.074;6.646;2023-02-28T05:03:42;12.30;;;5.43;;
59145;SDS011;44928;53.074;6.646;2023-02-28T05:06:08;11.32;;;5.25;;
59145;SDS011;44928;53.074;6.646;2023-02-28T05:08:35;12.65;;;5.07;;
59145;SDS011;44928;53.074;6.646;2023-02-28T05:11:01;11.13;;;5.70;;
59145;SDS011;44928;53.074;6.646;2023-02-28T05:13:27;12.95;;;6.03;;
59145;SDS011;44928;53.074;6.646;2023-02-28T05:15:54;13.35;;;6.57;;
59145;SDS011;44928;53.074;6.646;2023-02-28T05:18:20;10.63;;;6.22;;
59145;SDS011;44928;53.074;6.646;2023-02-28T05:20:46;13.45;;;6.95;;
59145;SDS011;44928;53.074;6.646;2023-02-28T05:23:12;13.27;;;6.65;;
59145;SDS011;44928;53.074;6.646;2023-02-28T05:25:39;13.18;;;6.53;;
59145;SDS011;44928;53.074;6.646;2023-02-28T05:28:06;12.48;;;6.53;;
59145;SDS011;44928;53.074;6.646;2023-02-28T05:30:31;14.25;;;7.30;;
59145;SDS011;44928;53.074;6.646;2023-02-28T05:32:57;14.50;;;7.03;;
59145;SDS011;44928;53.074;6.646;2023-02-28T05:35:25;14.57;;;7.35;;
59145;SDS011;44928;53.074;6.646;2023-02-28T05:37:52;12.90;;;7.43;;
59145;SDS011;44928;53.074;6.646;2023-02-28T05:40:18;13.75;;;7.82;;
59145;SDS011;44928;53.074;6.646;2023-02-28T05:42:45;14.25;;;7.85;;
59145;SDS011;44928;53.074;6.646;2023-02-28T05:45:11;13.60;;;7.80;;
59145;SDS011;44928;53.074;6.646;2023-02-28T05:47:38;15.00;;;7.88;;
59145;SDS011;44928;53.074;6.646;2023-02-28T05:50:04;14.95;;;8.73;;
59145;SDS011;44928;53.074;6.646;2023-02-28T05:52:31;16.08;;;8.40;;
59145;SDS011;44928;53.074;6.646;2023-02-28T05:54:57;17.08;;;9.27;;
59145;SDS011;44928;53.074;6.646;2023-02-28T05:57:22;15.52;;;8.23;;
59145;SDS011;44928;53.074;6.646;2023-02-28T05:59:48;16.67;;;8.85;;
59145;SDS011;44928;53.074;6.646;2023-02-28T06:02:16;16.80;;;8.15;;
59145;SDS011;44928;53.074;6.646;2023-02-28T06:04:43;16.80;;;9.00;;
59145;SDS011;44928;53.074;6.646;2023-02-28T06:07:09;14.00;;;8.23;;
59145;SDS011;44928;53.074;6.646;2023-02-28T06:09:35;15.82;;;8.73;;
59145;SDS011;44928;53.074;6.646;2023-02-28T06:12:02;14.93;;;7.88;;
59145;SDS011;44928;53.074;6.646;2023-02-28T06:14:31;16.73;;;8.85;;
59145;SDS011;44928;53.074;6.646;2023-02-28T06:16:58;15.35;;;8.43;;
59145;SDS011;44928;53.074;6.646;2023-02-28T06:19:25;17.17;;;7.68;;
59145;SDS011;44928;53.074;6.646;2023-02-28T06:21:52;14.50;;;8.43;;
59145;SDS011;44928;53.074;6.646;2023-02-28T06:24:18;18.80;;;8.52;;
59145;SDS011;44928;53.074;6.646;2023-02-28T06:26:45;14.20;;;8.15;;
59145;SDS011;44928;53.074;6.646;2023-02-28T06:29:11;16.65;;;8.50;;
59145;SDS011;44928;53.074;6.646;2023-02-28T06:31:37;17.75;;;9.35;;
59145;SDS011;44928;53.074;6.646;2023-02-28T06:34:03;16.88;;;8.98;;
59145;SDS011;44928;53.074;6.646;2023-02-28T06:36:30;16.40;;;8.82;;
59145;SDS011;44928;53.074;6.646;2023-02-28T06:38:56;17.55;;;9.57;;
59145;SDS011;44928;53.074;6.646;2023-02-28T06:41:25;15.07;;;8.48;;
59145;SDS011;44928;53.074;6.646;2023-02-28T06:43:52;17.63;;;9.05;;
59145;SDS011;44928;53.074;6.646;2023-02-28T06:46:18;16.60;;;8.73;;
59145;SDS011;44928;53.074;6.646;2023-02-28T06:48:44;16.50;;;8.50;;
59145;SDS011;44928;53.074;6.646;2023-02-28T06:51:12;16.52;;;8.88;;
59145;SDS011;44928;53.074;6.646;2023-02-28T06:53:40;16.67;;;9.25;;
59145;SDS011;44928;53.074;6.646;2023-02-28T06:56:07;17.05;;;8.48;;
59145;SDS011;44928;53.074;6.646;2023-02-28T06:58:35;15.75;;;9.05;;
59145;SDS011;44928;53.074;6.646;2023-02-28T07:01:01;17.73;;;9.73;;
59145;SDS011;44928;53.074;6.646;2023-02-28T07:03:27;21.05;;;9.40;;
59145;SDS011;44928;53.074;6.646;2023-02-28T07:05:53;17.50;;;9.45;;
59145;SDS011;44928;53.074;6.646;2023-02-28T07:08:21;15.10;;;8.73;;
59145;SDS011;44928;53.074;6.646;2023-02-28T07:10:51;17.95;;;9.20;;
59145;SDS011;44928;53.074;6.646;2023-02-28T07:13:18;17.13;;;9.37;;
59145;SDS011;44928;53.074;6.646;2023-02-28T07:15:44;17.08;;;9.45;;
59145;SDS011;44928;53.074;6.646;2023-02-28T07:18:09;19.08;;;10.05;;
59145;SDS011;44928;53.074;6.646;2023-02-28T07:20:35;17.20;;;10.02;;
59145;SDS011;44928;53.074;6.646;2023-02-28T07:23:01;18.98;;;10.52;;
59145;SDS011;44928;53.074;6.646;2023-02-28T07:25:27;15.95;;;9.80;;
59145;SDS011;44928;53.074;6.646;2023-02-28T07:27:54;17.88;;;10.32;;
59145;SDS011;44928;53.074;6.646;2023-02-28T07:30:21;17.48;;;9.32;;
59145;SDS011;44928;53.074;6.646;2023-02-28T07:32:47;19.25;;;9.82;;
59145;SDS011;44928;53.074;6.646;2023-02-28T07:35:13;17.42;;;9.85;;
59145;SDS011;44928;53.074;6.646;2023-02-28T07:37:41;17.58;;;9.80;;
59145;SDS011;44928;53.074;6.646;2023-02-28T07:40:08;16.75;;;10.18;;
59145;SDS011;44928;53.074;6.646;2023-02-28T07:42:38;16.30;;;10.02;;
59145;SDS011;44928;53.074;6.646;2023-02-28T07:45:05;16.67;;;9.60;;
59145;SDS011;44928;53.074;6.646;2023-02-28T07:47:32;16.73;;;9.13;;
59145;SDS011;44928;53.074;6.646;2023-02-28T07:49:58;16.05;;;9.27;;
59145;SDS011;44928;53.074;6.646;2023-02-28T07:52:24;16.42;;;9.52;;
59145;SDS011;44928;53.074;6.646;2023-02-28T07:54:50;18.25;;;10.48;;
59145;SDS011;44928;53.074;6.646;2023-02-28T07:57:16;18.20;;;10.60;;
59145;SDS011;44928;53.074;6.646;2023-02-28T07:59:42;18.15;;;9.60;;
59145;SDS011;44928;53.074;6.646;2023-02-28T08:02:14;14.80;;;9.45;;
59145;SDS011;44928;53.074;6.646;2023-02-28T08:04:41;19.52;;;11.15;;
59145;SDS011;44928;53.074;6.646;2023-02-28T08:07:07;15.77;;;9.98;;
59145;SDS011;44928;53.074;6.646;2023-02-28T08:09:33;18.35;;;10.23;;
59145;SDS011;44928;53.074;6.646;2023-02-28T08:11:59;18.25;;;10.43;;
59145;SDS011;44928;53.074;6.646;2023-02-28T08:14:25;22.27;;;11.27;;
59145;SDS011;44928;53.074;6.646;2023-02-28T08:16:51;17.13;;;11.10;;
59145;SDS011;44928;53.074;6.646;2023-02-28T08:19:30;16.35;;;10.32;;
59145;SDS011;44928;53.074;6.646;2023-02-28T08:21:56;20.58;;;11.00;;
59145;SDS011;44928;53.074;6.646;2023-02-28T08:24:23;17.90;;;10.65;;
59145;SDS011;44928;53.074;6.646;2023-02-28T08:26:49;19.20;;;11.55;;
59145;SDS011;44928;53.074;6.646;2023-02-28T08:29:15;16.42;;;9.88;;
59145;SDS011;44928;53.074;6.646;2023-02-28T08:31:41;16.83;;;10.40;;
59145;SDS011;44928;53.074;6.646;2023-02-28T08:34:07;20.60;;;11.52;;
59145;SDS011;44928;53.074;6.646;2023-02-28T08:36:35;16.13;;;10.57;;
59145;SDS011;44928;53.074;6.646;2023-02-28T08:39:02;19.90;;;10.50;;
59145;SDS011;44928;53.074;6.646;2023-02-28T08:41:28;18.52;;;10.02;;
59145;SDS011;44928;53.074;6.646;2023-02-28T08:43:54;20.52;;;11.65;;
59145;SDS011;44928;53.074;6.646;2023-02-28T08:46:20;17.85;;;11.43;;
59145;SDS011;44928;53.074;6.646;2023-02-28T08:48:46;19.48;;;10.85;;
59145;SDS011;44928;53.074;6.646;2023-02-28T08:51:30;19.55;;;11.48;;
59145;SDS011;44928;53.074;6.646;2023-02-28T08:53:57;18.73;;;11.35;;
59145;SDS011;44928;53.074;6.646;2023-02-28T08:56:25;18.60;;;10.52;;
59145;SDS011;44928;53.074;6.646;2023-02-28T08:58:51;20.67;;;11.13;;
59145;SDS011;44928;53.074;6.646;2023-02-28T09:01:22;16.65;;;10.40;;
59145;SDS011;44928;53.074;6.646;2023-02-28T09:03:52;18.38;;;10.13;;
59145;SDS011;44928;53.074;6.646;2023-02-28T09:06:20;18.20;;;10.75;;
59145;SDS011;44928;53.074;6.646;2023-02-28T09:08:47;20.42;;;10.45;;
59145;SDS011;44928;53.074;6.646;2023-02-28T09:11:13;17.15;;;10.35;;
59145;SDS011;44928;53.074;6.646;2023-02-28T09:13:39;17.77;;;10.27;;
59145;SDS011;44928;53.074;6.646;2023-02-28T09:16:06;16.90;;;9.70;;
59145;SDS011;44928;53.074;6.646;2023-02-28T09:18:34;14.15;;;8.57;;
59145;SDS011;44928;53.074;6.646;2023-02-28T09:21:07;15.00;;;9.48;;
59145;SDS011;44928;53.074;6.646;2023-02-28T09:23:34;16.50;;;9.23;;
59145;SDS011;44928;53.074;6.646;2023-02-28T09:26:03;16.55;;;9.98;;
59145;SDS011;44928;53.074;6.646;2023-02-28T09:28:29;16.83;;;10.05;;
59145;SDS011;44928;53.074;6.646;2023-02-28T09:30:55;15.93;;;9.98;;
59145;SDS011;44928;53.074;6.646;2023-02-28T09:33:22;16.02;;;9.38;;
59145;SDS011;44928;53.074;6.646;2023-02-28T09:35:49;15.45;;;9.32;;
59145;SDS011;44928;53.074;6.646;2023-02-28T09:38:15;14.60;;;9.02;;
59145;SDS011;44928;53.074;6.646;2023-02-28T09:40:56;17.65;;;8.52;;
59145;SDS011;44928;53.074;6.646;2023-02-28T09:43:36;14.57;;;8.77;;
59145;SDS011;44928;53.074;6.646;2023-02-28T09:48:54;15.27;;;8.55;;
59145;SDS011;44928;53.074;6.646;2023-02-28T09:53:58;13.40;;;9.10;;
59145;SDS011;44928;53.074;6.646;2023-02-28T09:56:25;14.40;;;8.95;;
59145;SDS011;44928;53.074;6.646;2023-02-28T10:02:00;13.52;;;7.55;;
59145;SDS011;44928;53.074;6.646;2023-02-28T10:04:43;12.85;;;7.05;;
59145;SDS011;44928;53.074;6.646;2023-02-28T10:10:18;12.68;;;6.85;;
59145;SDS011;44928;53.074;6.646;2023-02-28T10:12:52;10.68;;;5.63;;
59145;SDS011;44928;53.074;6.646;2023-02-28T10:15:21;12.02;;;6.05;;
59145;SDS011;44928;53.074;6.646;2023-02-28T10:17:51;11.38;;;5.20;;
59145;SDS011;44928;53.074;6.646;2023-02-28T10:20:22;8.45;;;3.90;;
59145;SDS011;44928;53.074;6.646;2023-02-28T10:25:33;9.02;;;3.28;;
59145;SDS011;44928;53.074;6.646;2023-02-28T10:28:07;9.93;;;4.05;;
59145;SDS011;44928;53.074;6.646;2023-02-28T10:30:40;9.48;;;3.83;;
59145;SDS011;44928;53.074;6.646;2023-02-28T10:35:55;7.40;;;3.13;;
59145;SDS011;44928;53.074;6.646;2023-02-28T10:38:23;8.30;;;2.88;;
59145;SDS011;44928;53.074;6.646;2023-02-28T10:41:07;8.25;;;3.10;;
59145;SDS011;44928;53.074;6.646;2023-02-28T10:43:35;8.60;;;3.80;;
59145;SDS011;44928;53.074;6.646;2023-02-28T10:46:04;8.93;;;3.63;;
59145;SDS011;44928;53.074;6.646;2023-02-28T10:51:18;9.32;;;4.15;;
59145;SDS011;44928;53.074;6.646;2023-02-28T10:56:18;8.30;;;3.50;;
59145;SDS011;44928;53.074;6.646;2023-02-28T11:01:48;11.67;;;4.10;;
59145;SDS011;44928;53.074;6.646;2023-02-28T11:04:31;9.25;;;3.80;;
59145;SDS011;44928;53.074;6.646;2023-02-28T11:09:48;8.95;;;4.10;;
59145;SDS011;44928;53.074;6.646;2023-02-28T11:14:56;10.05;;;4.05;;
59145;SDS011;44928;53.074;6.646;2023-02-28T11:17:28;8.75;;;4.80;;
59145;SDS011;44928;53.074;6.646;2023-02-28T11:20:00;8.85;;;3.83;;
59145;SDS011;44928;53.074;6.646;2023-02-28T11:22:31;8.73;;;3.83;;
59145;SDS011;44928;53.074;6.646;2023-02-28T11:25:19;8.77;;;4.10;;
59145;SDS011;44928;53.074;6.646;2023-02-28T11:27:51;8.93;;;4.47;;
59145;SDS011;44928;53.074;6.646;2023-02-28T11:30:29;9.25;;;4.53;;
59145;SDS011;44928;53.074;6.646;2023-02-28T11:32:57;11.18;;;4.28;;
59145;SDS011;44928;53.074;6.646;2023-02-28T11:35:30;9.75;;;4.43;;
59145;SDS011;44928;53.074;6.646;2023-02-28T11:38:01;12.95;;;4.75;;
59145;SDS011;44928;53.074;6.646;2023-02-28T11:40:39;9.00;;;4.38;;
59145;SDS011;44928;53.074;6.646;2023-02-28T11:49:38;10.68;;;5.05;;
59145;SDS011;44928;53.074;6.646;2023-02-28T11:51:56;10.00;;;4.80;;
59145;SDS011;44928;53.074;6.646;2023-02-28T11:54:43;10.40;;;5.47;;
59145;SDS011;44928;53.074;6.646;2023-02-28T11:57:32;10.93;;;5.18;;
59145;SDS011;44928;53.074;6.646;2023-02-28T12:02:50;10.40;;;4.95;;
59145;SDS011;44928;53.074;6.646;2023-02-28T12:05:38;11.60;;;5.18;;
59145;SDS011;44928;53.074;6.646;2023-02-28T12:24:44;10.02;;;5.60;;
59145;SDS011;44928;53.074;6.646;2023-02-28T12:27:36;10.45;;;5.47;;
59145;SDS011;44928;53.074;6.646;2023-02-28T12:32:42;10.68;;;4.47;;
59145;SDS011;44928;53.074;6.646;2023-02-28T12:35:12;9.40;;;4.75;;
59145;SDS011;44928;53.074;6.646;2023-02-28T12:37:55;9.65;;;5.03;;
59145;SDS011;44928;53.074;6.646;2023-02-28T12:40:48;9.63;;;4.70;;
59145;SDS011;44928;53.074;6.646;2023-02-28T12:43:28;9.75;;;4.72;;
59145;SDS011;44928;53.074;6.646;2023-02-28T12:46:09;11.45;;;5.22;;
59145;SDS011;44928;53.074;6.646;2023-02-28T12:48:52;10.13;;;4.95;;
59145;SDS011;44928;53.074;6.646;2023-02-28T12:51:21;10.15;;;4.97;;
59145;SDS011;44928;53.074;6.646;2023-02-28T12:59:41;11.13;;;4.70;;
59145;SDS011;44928;53.074;6.646;2023-02-28T13:10:02;9.73;;;4.40;;
59145;SDS011;44928;53.074;6.646;2023-02-28T13:12:32;9.90;;;4.65;;
59145;SDS011;44928;53.074;6.646;2023-02-28T13:15:04;10.43;;;5.05;;
59145;SDS011;44928;53.074;6.646;2023-02-28T13:17:41;9.52;;;4.47;;
59145;SDS011;44928;53.074;6.646;2023-02-28T13:20:17;12.75;;;5.40;;
59145;SDS011;44928;53.074;6.646;2023-02-28T13:22:52;10.02;;;5.00;;
59145;SDS011;44928;53.074;6.646;2023-02-28T13:27:54;8.70;;;4.40;;
59145;SDS011;44928;53.074;6.646;2023-02-28T13:33:27;10.35;;;3.92;;
59145;SDS011;44928;53.074;6.646;2023-02-28T13:38:39;10.18;;;4.13;;
59145;SDS011;44928;53.074;6.646;2023-02-28T13:57:23;9.05;;;4.00;;
59145;SDS011;44928;53.074;6.646;2023-02-28T14:00:17;9.63;;;4.00;;
59145;SDS011;44928;53.074;6.646;2023-02-28T14:05:40;10.70;;;4.18;;
59145;SDS011;44928;53.074;6.646;2023-02-28T14:08:16;9.73;;;4.13;;
59145;SDS011;44928;53.074;6.646;2023-02-28T14:10:47;8.70;;;3.80;;
59145;SDS011;44928;53.074;6.646;2023-02-28T14:16:20;10.50;;;3.95;;
59145;SDS011;44928;53.074;6.646;2023-02-28T14:18:50;8.88;;;3.70;;
59145;SDS011;44928;53.074;6.646;2023-02-28T14:23:58;10.52;;;4.45;;
59145;SDS011;44928;53.074;6.646;2023-02-28T14:32:25;8.70;;;3.92;;
59145;SDS011;44928;53.074;6.646;2023-02-28T14:37:52;10.00;;;4.05;;
59145;SDS011;44928;53.074;6.646;2023-02-28T14:40:35;8.75;;;4.03;;
59145;SDS011;44928;53.074;6.646;2023-02-28T14:43:04;8.82;;;3.75;;
59145;SDS011;44928;53.074;6.646;2023-02-28T14:45:32;10.63;;;4.28;;
59145;SDS011;44928;53.074;6.646;2023-02-28T14:48:01;9.40;;;4.38;;
59145;SDS011;44928;53.074;6.646;2023-02-28T14:50:30;9.43;;;4.18;;
59145;SDS011;44928;53.074;6.646;2023-02-28T14:52:59;7.38;;;3.58;;
59145;SDS011;44928;53.074;6.646;2023-02-28T14:55:26;8.75;;;3.75;;
59145;SDS011;44928;53.074;6.646;2023-02-28T14:57:59;9.70;;;4.30;;
59145;SDS011;44928;53.074;6.646;2023-02-28T15:00:35;8.43;;;4.00;;
59145;SDS011;44928;53.074;6.646;2023-02-28T15:03:18;9.65;;;4.15;;
59145;SDS011;44928;53.074;6.646;2023-02-28T15:05:56;9.40;;;4.03;;
59145;SDS011;44928;53.074;6.646;2023-02-28T15:08:30;9.15;;;4.03;;
59145;SDS011;44928;53.074;6.646;2023-02-28T15:11:16;9.88;;;3.95;;
59145;SDS011;44928;53.074;6.646;2023-02-28T15:13:50;9.43;;;4.50;;
59145;SDS011;44928;53.074;6.646;2023-02-28T15:21:21;9.73;;;4.20;;
59145;SDS011;44928;53.074;6.646;2023-02-28T15:23:49;8.68;;;4.07;;
59145;SDS011;44928;53.074;6.646;2023-02-28T15:26:22;8.95;;;4.00;;
59145;SDS011;44928;53.074;6.646;2023-02-28T15:28:55;10.07;;;4.43;;
59145;SDS011;44928;53.074;6.646;2023-02-28T15:31:29;9.43;;;4.40;;
59145;SDS011;44928;53.074;6.646;2023-02-28T15:33:58;7.93;;;3.95;;
59145;SDS011;44928;53.074;6.646;2023-02-28T15:36:30;9.15;;;4.20;;
59145;SDS011;44928;53.074;6.646;2023-02-28T15:38:59;10.88;;;4.50;;
59145;SDS011;44928;53.074;6.646;2023-02-28T15:41:27;9.43;;;4.55;;
59145;SDS011;44928;53.074;6.646;2023-02-28T15:44:14;8.32;;;3.95;;
59145;SDS011;44928;53.074;6.646;2023-02-28T15:46:59;9.25;;;4.18;;
59145;SDS011;44928;53.074;6.646;2023-02-28T15:49:34;9.63;;;4.22;;
59145;SDS011;44928;53.074;6.646;2023-02-28T15:55:16;10.07;;;5.47;;
59145;SDS011;44928;53.074;6.646;2023-02-28T15:57:48;11.07;;;4.70;;
59145;SDS011;44928;53.074;6.646;2023-02-28T16:00:22;9.88;;;4.50;;
59145;SDS011;44928;53.074;6.646;2023-02-28T16:02:49;9.57;;;4.93;;
59145;SDS011;44928;53.074;6.646;2023-02-28T16:07:53;8.77;;;4.57;;
59145;SDS011;44928;53.074;6.646;2023-02-28T16:10:20;9.05;;;4.32;;
59145;SDS011;44928;53.074;6.646;2023-02-28T16:12:52;10.45;;;5.15;;
59145;SDS011;44928;53.074;6.646;2023-02-28T16:17:51;9.27;;;4.43;;
59145;SDS011;44928;53.074;6.646;2023-02-28T16:20:27;8.75;;;4.25;;
59145;SDS011;44928;53.074;6.646;2023-02-28T16:22:55;9.18;;;4.30;;
59145;SDS011;44928;53.074;6.646;2023-02-28T16:25:26;7.60;;;4.28;;
59145;SDS011;44928;53.074;6.646;2023-02-28T16:27:59;9.00;;;4.70;;
59145;SDS011;44928;53.074;6.646;2023-02-28T16:30:26;8.85;;;4.55;;
59145;SDS011;44928;53.074;6.646;2023-02-28T16:32:56;9.02;;;4.60;;
59145;SDS011;44928;53.074;6.646;2023-02-28T16:35:22;9.35;;;4.43;;
59145;SDS011;44928;53.074;6.646;2023-02-28T16:37:52;9.38;;;4.60;;
59145;SDS011;44928;53.074;6.646;2023-02-28T16:40:20;9.80;;;4.82;;
59145;SDS011;44928;53.074;6.646;2023-02-28T16:42:51;7.93;;;4.15;;
59145;SDS011;44928;53.074;6.646;2023-02-28T16:45:23;9.38;;;4.70;;
59145;SDS011;44928;53.074;6.646;2023-02-28T16:47:51;9.00;;;4.70;;
59145;SDS011;44928;53.074;6.646;2023-02-28T16:50:18;12.23;;;5.05;;
59145;SDS011;44928;53.074;6.646;2023-02-28T16:52:46;8.82;;;4.22;;
59145;SDS011;44928;53.074;6.646;2023-02-28T16:55:14;8.60;;;4.38;;
59145;SDS011;44928;53.074;6.646;2023-02-28T16:57:41;8.55;;;4.60;;
59145;SDS011;44928;53.074;6.646;2023-02-28T17:00:10;8.77;;;4.15;;
59145;SDS011;44928;53.074;6.646;2023-02-28T17:02:38;9.50;;;4.53;;
59145;SDS011;44928;53.074;6.646;2023-02-28T17:05:04;9.68;;;4.68;;
59145;SDS011;44928;53.074;6.646;2023-02-28T17:07:31;8.30;;;4.35;;
59145;SDS011;44928;53.074;6.646;2023-02-28T17:09:58;8.50;;;4.72;;
59145;SDS011;44928;53.074;6.646;2023-02-28T17:12:25;8.32;;;4.18;;
59145;SDS011;44928;53.074;6.646;2023-02-28T17:14:51;9.48;;;4.97;;
59145;SDS011;44928;53.074;6.646;2023-02-28T17:17:18;11.60;;;3.92;;
59145;SDS011;44928;53.074;6.646;2023-02-28T17:19:46;10.00;;;3.97;;
59145;SDS011;44928;53.074;6.646;2023-02-28T17:22:13;9.52;;;4.20;;
59145;SDS011;44928;53.074;6.646;2023-02-28T17:24:38;8.77;;;3.85;;
59145;SDS011;44928;53.074;6.646;2023-02-28T17:27:04;8.25;;;4.07;;
59145;SDS011;44928;53.074;6.646;2023-02-28T17:29:32;11.57;;;4.78;;
59145;SDS011;44928;53.074;6.646;2023-02-28T17:31:58;9.13;;;4.55;;
59145;SDS011;44928;53.074;6.646;2023-02-28T17:34:24;9.93;;;4.70;;
59145;SDS011;44928;53.074;6.646;2023-02-28T17:36:50;9.32;;;4.60;;
59145;SDS011;44928;53.074;6.646;2023-02-28T17:39:17;9.30;;;4.22;;
59145;SDS011;44928;53.074;6.646;2023-02-28T17:41:54;8.68;;;4.30;;
59145;SDS011;44928;53.074;6.646;2023-02-28T17:44:21;8.93;;;4.38;;